createdAt,value
2024-05-09T00:00:18.679Z,10.47
2024-05-09T00:03:23.774Z,10.48
2024-05-09T00:06:01.255Z,10.48
2024-05-09T00:08:38.764Z,10.48
2024-05-09T00:11:16.432Z,10.48
2024-05-09T00:13:53.860Z,10.47
2024-05-09T00:16:31.161Z,10.49
2024-05-09T00:19:10.129Z,10.48
2024-05-09T00:21:49.068Z,10.47
2024-05-09T00:24:23.732Z,10.47
2024-05-09T00:27:01.028Z,10.41
2024-05-09T00:29:38.277Z,10.38
2024-05-09T00:32:15.577Z,10.34
2024-05-09T00:34:53.031Z,10.31
2024-05-09T00:37:30.324Z,10.30
2024-05-09T00:40:15.053Z,10.29
2024-05-09T00:42:59.620Z,10.28
2024-05-09T00:45:37.274Z,10.27
2024-05-09T00:48:19.763Z,10.27
2024-05-09T00:50:58.855Z,10.25
2024-05-09T00:53:36.631Z,10.22
2024-05-09T00:56:15.773Z,10.19
2024-05-09T00:58:54.056Z,10.16
2024-05-09T01:01:32.076Z,10.12
2024-05-09T01:04:11.427Z,10.05
2024-05-09T01:06:50.187Z,9.98
2024-05-09T01:09:27.402Z,9.94
2024-05-09T01:12:04.653Z,9.90
2024-05-09T01:14:44.075Z,9.85
2024-05-09T01:17:21.751Z,9.82
2024-05-09T01:19:58.984Z,9.83
2024-05-09T01:22:37.149Z,9.84
2024-05-09T01:25:15.856Z,9.84
2024-05-09T01:27:53.060Z,9.83
2024-05-09T01:30:34.891Z,9.83
2024-05-09T01:33:15.237Z,9.83
2024-05-09T01:35:52.552Z,9.81
2024-05-09T01:38:29.755Z,9.82
2024-05-09T01:41:07.706Z,9.80
2024-05-09T01:43:45.106Z,9.79
2024-05-09T01:46:22.297Z,9.76
2024-05-09T01:48:59.840Z,9.72
2024-05-09T01:51:37.985Z,9.69
2024-05-09T01:54:15.135Z,9.64
2024-05-09T01:56:52.318Z,9.60
2024-05-09T01:59:29.568Z,9.57
2024-05-09T02:02:07.387Z,9.55
2024-05-09T02:04:48.181Z,9.53
2024-05-09T02:07:25.570Z,9.51
2024-05-09T02:10:06.491Z,9.48
2024-05-09T02:12:45.520Z,9.43
2024-05-09T02:15:23.032Z,9.38
2024-05-09T02:18:00.389Z,9.32
2024-05-09T02:20:38.093Z,9.28
2024-05-09T02:23:16.284Z,9.26
2024-05-09T02:25:53.768Z,9.24
2024-05-09T02:28:31.175Z,9.21
2024-05-09T02:31:08.440Z,9.19
2024-05-09T02:33:46.047Z,9.18
2024-05-09T02:36:23.293Z,9.13
2024-05-09T02:39:02.516Z,9.12
2024-05-09T02:41:39.929Z,9.14
2024-05-09T02:44:17.217Z,9.17
2024-05-09T02:46:54.658Z,9.14
2024-05-09T02:49:32.224Z,9.13
2024-05-09T02:52:10.299Z,9.12
2024-05-09T02:54:47.443Z,9.11
2024-05-09T02:57:24.616Z,9.10
2024-05-09T03:00:01.805Z,9.08
2024-05-09T03:02:39.296Z,9.07
2024-05-09T03:05:16.707Z,9.04
2024-05-09T03:07:53.934Z,9.01
2024-05-09T03:10:35.990Z,8.97
2024-05-09T03:13:16.774Z,8.92
2024-05-09T03:15:54.018Z,8.88
2024-05-09T03:18:31.166Z,8.84
2024-05-09T03:21:08.740Z,8.83
2024-05-09T03:23:47.276Z,8.82
2024-05-09T03:26:24.504Z,8.81
2024-05-09T03:29:02.962Z,8.81
2024-05-09T03:31:41.194Z,8.84
2024-05-09T03:34:18.419Z,8.83
2024-05-09T03:36:55.678Z,8.83
2024-05-09T03:39:32.915Z,8.82
2024-05-09T03:42:10.767Z,8.78
2024-05-09T03:44:48.009Z,8.76
2024-05-09T03:47:25.376Z,8.73
2024-05-09T03:50:04.412Z,8.68
2024-05-09T03:52:42.673Z,8.64
2024-05-09T03:55:20.015Z,8.60
2024-05-09T03:57:57.222Z,8.55
2024-05-09T04:00:38.231Z,8.55
2024-05-09T04:03:17.227Z,8.55
2024-05-09T04:05:54.616Z,8.55
2024-05-09T04:08:31.885Z,8.57
2024-05-09T04:11:09.693Z,8.61
2024-05-09T04:13:47.093Z,8.63
2024-05-09T04:16:24.262Z,8.65
2024-05-09T04:19:03.259Z,8.65
2024-05-09T04:21:41.027Z,8.65
2024-05-09T04:24:18.239Z,8.64
2024-05-09T04:26:55.513Z,8.62
2024-05-09T04:29:32.890Z,8.60
2024-05-09T04:32:11.038Z,8.61
2024-05-09T04:34:48.320Z,8.54
2024-05-09T04:37:25.579Z,8.51
2024-05-09T04:40:03.106Z,8.52
2024-05-09T04:42:42.548Z,8.52
2024-05-09T04:45:19.827Z,8.52
2024-05-09T04:47:57.259Z,8.54
2024-05-09T04:50:38.260Z,8.56
2024-05-09T04:53:20.527Z,8.57
2024-05-09T04:55:58.059Z,8.59
2024-05-09T04:58:35.321Z,8.59
2024-05-09T05:01:12.812Z,8.61
2024-05-09T05:03:50.197Z,8.63
2024-05-09T05:06:27.643Z,8.65
2024-05-09T05:09:06.223Z,8.67
2024-05-09T05:11:43.670Z,8.71
2024-05-09T05:14:21.096Z,8.69
2024-05-09T05:16:58.436Z,8.71
2024-05-09T05:19:35.870Z,8.79
2024-05-09T05:22:13.274Z,8.85
2024-05-09T05:24:50.482Z,8.91
2024-05-09T05:27:27.711Z,8.97
2024-05-09T05:30:09.418Z,9.06
2024-05-09T05:32:47.004Z,9.13
2024-05-09T05:35:24.563Z,9.19
2024-05-09T05:38:02.176Z,9.24
2024-05-09T05:40:40.989Z,9.29
2024-05-09T05:43:21.965Z,9.34
2024-05-09T05:45:59.162Z,9.41
2024-05-09T05:48:36.490Z,9.47
2024-05-09T05:51:14.017Z,9.51
2024-05-09T05:53:51.288Z,9.57
2024-05-09T05:56:28.757Z,9.63
2024-05-09T05:59:06.840Z,9.71
2024-05-09T06:01:44.308Z,9.78
2024-05-09T06:04:22.473Z,9.88
2024-05-09T06:07:00.727Z,9.97
2024-05-09T06:09:39.345Z,10.08
2024-05-09T06:12:17.728Z,10.19
2024-05-09T06:14:55.509Z,10.29
2024-05-09T06:17:33.194Z,10.36
2024-05-09T06:20:20.251Z,10.45
2024-05-09T06:23:02.565Z,10.53
2024-05-09T06:25:40.589Z,10.61
2024-05-09T06:28:18.026Z,10.70
2024-05-09T06:30:55.520Z,10.78
2024-05-09T06:33:33.394Z,10.84
2024-05-09T06:36:12.098Z,10.93
2024-05-09T06:38:49.631Z,11.01
2024-05-09T06:41:27.418Z,11.07
2024-05-09T06:44:07.317Z,11.14
2024-05-09T06:46:45.561Z,11.20
2024-05-09T06:49:23.466Z,11.26
2024-05-09T06:52:01.126Z,11.33
2024-05-09T06:54:38.818Z,11.38
2024-05-09T06:57:16.519Z,11.46
2024-05-09T06:59:54.060Z,11.52
2024-05-09T07:02:32.303Z,11.63
2024-05-09T07:05:11.279Z,11.72
2024-05-09T07:07:46.220Z,11.81
2024-05-09T07:10:29.043Z,11.90
2024-05-09T07:13:15.050Z,11.99
2024-05-09T07:15:53.201Z,12.09
2024-05-09T07:18:31.804Z,12.18
2024-05-09T07:21:10.024Z,12.24
2024-05-09T07:23:47.913Z,12.33
2024-05-09T07:26:25.674Z,12.39
2024-05-09T07:29:04.367Z,12.46
2024-05-09T07:31:41.909Z,12.53
2024-05-09T07:34:19.729Z,12.58
2024-05-09T07:36:57.415Z,12.62
2024-05-09T07:39:34.884Z,12.67
2024-05-09T07:42:12.779Z,12.72
2024-05-09T07:44:50.384Z,12.75
2024-05-09T07:53:35.278Z,12.89
2024-05-09T07:55:47.718Z,12.94
2024-05-09T07:58:27.855Z,12.98
2024-05-09T08:01:05.867Z,13.02
2024-05-09T08:03:43.891Z,13.06
2024-05-09T08:06:21.448Z,13.09
2024-05-09T08:09:02.814Z,13.12
2024-05-09T08:11:43.436Z,13.15
2024-05-09T08:14:20.933Z,13.19
2024-05-09T08:16:58.446Z,13.22
2024-05-09T08:19:37.843Z,13.27
2024-05-09T08:22:15.538Z,13.32
2024-05-09T08:24:53.199Z,13.40
2024-05-09T08:27:31.071Z,13.47
2024-05-09T08:30:15.466Z,13.54
2024-05-09T08:32:59.157Z,13.64
2024-05-09T08:35:37.026Z,13.74
2024-05-09T08:38:14.612Z,13.83
2024-05-09T08:40:52.526Z,13.90
2024-05-09T08:43:32.381Z,13.97
2024-05-09T08:46:11.372Z,14.04
2024-05-09T08:48:50.795Z,14.10
2024-05-09T08:51:29.229Z,14.16
2024-05-09T08:54:07.472Z,14.25
2024-05-09T08:56:48.425Z,14.30
2024-05-09T08:59:30.584Z,14.37
2024-05-09T09:02:09.084Z,14.42
2024-05-09T09:04:53.716Z,14.48
2024-05-09T09:07:32.521Z,14.56
2024-05-09T09:10:12.871Z,14.64
2024-05-09T09:13:00.851Z,14.73
2024-05-09T09:15:48.683Z,14.80
2024-05-09T09:18:27.634Z,14.85
2024-05-09T09:21:05.552Z,14.89
2024-05-09T09:23:44.400Z,14.96
2024-05-09T09:26:25.393Z,14.96
2024-05-09T09:29:07.547Z,15.06
2024-05-09T09:31:45.075Z,15.15
2024-05-09T09:34:22.810Z,15.25
2024-05-09T09:37:06.673Z,15.33
2024-05-09T09:39:49.053Z,15.44
2024-05-09T09:42:30.105Z,15.50
2024-05-09T09:45:09.452Z,15.60
2024-05-09T09:47:49.322Z,15.77
2024-05-09T09:50:33.877Z,15.98
2024-05-09T09:53:13.107Z,16.16
2024-05-09T09:55:51.484Z,16.30
2024-05-09T09:58:29.964Z,16.39
2024-05-09T10:01:04.780Z,16.47
2024-05-09T10:03:42.518Z,16.54
2024-05-09T10:06:21.581Z,16.63
2024-05-09T10:09:00.007Z,16.75
2024-05-09T10:11:42.034Z,16.84
2024-05-09T10:14:31.004Z,16.92
2024-05-09T10:17:11.890Z,16.99
2024-05-09T10:19:49.197Z,17.07
2024-05-09T10:22:34.064Z,17.18
2024-05-09T10:25:12.645Z,17.29
2024-05-09T10:27:57.074Z,17.35
2024-05-09T10:30:36.300Z,17.35
2024-05-09T10:33:17.028Z,17.32
2024-05-09T10:36:05.285Z,17.32
2024-05-09T10:38:42.806Z,17.35
2024-05-09T10:41:22.056Z,17.39
2024-05-09T10:43:59.301Z,17.48
2024-05-09T10:46:36.590Z,17.59
2024-05-09T10:49:16.427Z,17.73
2024-05-09T10:51:55.023Z,17.85
2024-05-09T10:54:41.073Z,17.97
2024-05-09T10:57:19.834Z,18.07
2024-05-09T10:59:57.067Z,18.18
2024-05-09T11:02:34.545Z,18.24
2024-05-09T11:05:12.449Z,18.29
2024-05-09T11:07:49.760Z,18.33
2024-05-09T11:10:33.749Z,18.32
2024-05-09T11:13:12.041Z,18.30
2024-05-09T11:15:49.542Z,18.29
2024-05-09T11:18:31.918Z,18.27
2024-05-09T11:21:17.277Z,18.25
2024-05-09T11:23:54.868Z,18.24
2024-05-09T11:26:34.090Z,18.23
2024-05-09T11:29:15.737Z,18.21
2024-05-09T11:31:54.685Z,18.19
2024-05-09T11:34:32.106Z,18.16
2024-05-09T11:37:10.345Z,18.12
2024-05-09T11:39:47.771Z,18.07
2024-05-09T11:42:26.108Z,17.99
2024-05-09T11:45:03.293Z,17.95
2024-05-09T11:47:41.153Z,17.98
2024-05-09T11:50:26.901Z,18.01
2024-05-09T11:53:07.922Z,18.05
2024-05-09T11:55:45.186Z,18.09
2024-05-09T11:58:23.645Z,18.13
2024-05-09T12:01:02.004Z,18.19
2024-05-09T12:03:40.776Z,18.22
2024-05-09T12:06:18.532Z,18.31
2024-05-09T12:08:56.206Z,18.42
2024-05-09T12:11:33.627Z,18.53
2024-05-09T12:14:11.024Z,18.66
2024-05-09T12:16:48.537Z,18.79
2024-05-09T12:19:25.950Z,18.92
2024-05-09T12:22:03.398Z,19.05
2024-05-09T12:24:40.876Z,19.18
2024-05-09T12:27:18.624Z,19.33
2024-05-09T12:29:55.944Z,19.48
2024-05-09T12:32:33.252Z,19.58
2024-05-09T12:35:10.854Z,19.63
2024-05-09T12:37:48.121Z,19.62
2024-05-09T12:40:34.316Z,19.60
2024-05-09T12:43:14.855Z,19.57
2024-05-09T12:45:52.523Z,19.54
2024-05-09T12:48:30.045Z,19.51
2024-05-09T12:51:07.995Z,19.47
2024-05-09T12:53:45.239Z,19.39
2024-05-09T12:56:22.571Z,19.32
2024-05-09T12:59:00.186Z,19.27
2024-05-09T13:01:37.611Z,19.20
2024-05-09T13:04:15.004Z,19.13
2024-05-09T13:06:52.466Z,19.08
2024-05-09T13:09:29.867Z,19.01
2024-05-09T13:12:07.707Z,18.97
2024-05-09T13:14:44.922Z,18.97
2024-05-09T13:17:22.322Z,19.02
2024-05-09T13:19:59.655Z,19.09
2024-05-09T13:22:38.468Z,19.19
2024-05-09T13:25:16.552Z,19.30
2024-05-09T13:27:54.270Z,19.41
2024-05-09T13:30:39.245Z,19.49
2024-05-09T13:33:19.208Z,19.56
2024-05-09T13:35:56.801Z,19.61
2024-05-09T13:38:34.154Z,19.59
2024-05-09T13:41:11.757Z,19.55
2024-05-09T13:43:49.009Z,19.50
2024-05-09T13:46:27.086Z,19.45
2024-05-09T13:49:07.678Z,19.38
2024-05-09T13:51:45.837Z,19.26
2024-05-09T13:54:23.029Z,19.21
2024-05-09T13:57:03.474Z,19.18
2024-05-09T13:59:40.671Z,19.22
2024-05-09T14:02:18.190Z,19.27
2024-05-09T14:04:56.050Z,19.33
2024-05-09T14:07:33.460Z,19.41
2024-05-09T14:10:19.491Z,19.47
2024-05-09T14:13:01.273Z,19.51
2024-05-09T14:15:36.234Z,19.52
2024-05-09T14:18:14.572Z,19.52
2024-05-09T14:20:52.231Z,19.49
2024-05-09T14:23:29.548Z,19.44
2024-05-09T14:26:07.362Z,19.39
2024-05-09T14:28:44.570Z,19.32
2024-05-09T14:31:22.670Z,19.26
2024-05-09T14:34:00.101Z,19.21
2024-05-09T14:36:37.781Z,19.17
2024-05-09T14:39:15.346Z,19.13
2024-05-09T14:41:52.841Z,19.10
2024-05-09T14:44:30.142Z,19.09
2024-05-09T14:47:07.479Z,19.09
2024-05-09T14:49:44.831Z,19.08
2024-05-09T14:52:22.122Z,19.05
2024-05-09T14:55:00.526Z,19.05
2024-05-09T14:57:38.655Z,19.08
2024-05-09T15:00:24.831Z,19.13
2024-05-09T15:03:05.976Z,19.23
2024-05-09T15:05:43.491Z,19.37
2024-05-09T15:08:22.587Z,19.50
2024-05-09T15:10:59.958Z,19.60
2024-05-09T15:13:37.212Z,19.68
2024-05-09T15:16:14.597Z,19.74
2024-05-09T15:18:52.178Z,19.74
2024-05-09T15:21:29.634Z,19.71
2024-05-09T15:24:09.478Z,19.65
2024-05-09T15:26:46.774Z,19.61
2024-05-09T15:29:24.034Z,19.58
2024-05-09T15:32:01.308Z,19.54
2024-05-09T15:34:38.736Z,19.47
2024-05-09T15:37:16.145Z,19.43
2024-05-09T15:39:53.698Z,19.35
2024-05-09T15:42:31.203Z,19.28
2024-05-09T15:45:10.041Z,19.22
2024-05-09T15:47:48.377Z,19.19
2024-05-09T15:50:35.956Z,19.14
2024-05-09T15:53:17.575Z,19.09
2024-05-09T15:55:54.795Z,19.07
2024-05-09T15:58:32.511Z,19.06
2024-05-09T16:01:10.435Z,19.06
2024-05-09T16:03:48.029Z,19.03
2024-05-09T16:06:25.752Z,18.97
2024-05-09T16:09:03.112Z,18.98
2024-05-09T16:11:42.997Z,19.06
2024-05-09T16:14:20.773Z,19.14
2024-05-09T16:16:58.163Z,19.21
2024-05-09T16:19:35.522Z,19.26
2024-05-09T16:22:12.873Z,19.28
2024-05-09T16:24:50.758Z,19.28
2024-05-09T16:27:27.999Z,19.27
2024-05-09T16:30:09.479Z,19.25
2024-05-09T16:32:52.820Z,19.23
2024-05-09T16:35:30.173Z,19.19
2024-05-09T16:38:07.839Z,19.14
2024-05-09T16:40:45.566Z,19.09
2024-05-09T16:43:23.274Z,19.04
2024-05-09T16:46:00.748Z,18.97
2024-05-09T16:48:40.862Z,18.91
2024-05-09T16:51:18.238Z,18.86
2024-05-09T16:53:55.455Z,18.82
2024-05-09T16:56:32.715Z,18.80
2024-05-09T16:59:10.418Z,18.77
2024-05-09T17:01:47.740Z,18.75
2024-05-09T17:04:25.301Z,18.71
2024-05-09T17:07:02.850Z,18.63
2024-05-09T17:09:43.194Z,18.55
2024-05-09T17:12:20.470Z,18.49
2024-05-09T17:14:57.645Z,18.48
2024-05-09T17:17:34.998Z,18.43
2024-05-09T17:20:25.580Z,18.42
2024-05-09T17:23:13.741Z,18.41
2024-05-09T17:25:51.662Z,18.39
2024-05-09T17:28:29.266Z,18.36
2024-05-09T17:31:07.577Z,18.35
2024-05-09T17:33:45.151Z,18.32
2024-05-09T17:36:22.566Z,18.28
2024-05-09T17:38:59.812Z,18.24
2024-05-09T17:41:37.251Z,18.19
2024-05-09T17:44:15.383Z,18.15
2024-05-09T17:46:53.131Z,18.13
2024-05-09T17:49:30.460Z,18.09
2024-05-09T17:52:08.484Z,18.02
2024-05-09T17:54:45.815Z,17.94
2024-05-09T17:57:23.262Z,17.88
2024-05-09T18:00:00.511Z,17.79
2024-05-09T18:02:37.896Z,17.72
2024-05-09T18:05:15.340Z,17.66
2024-05-09T18:07:52.736Z,17.61
2024-05-09T18:10:35.986Z,17.54
2024-05-09T18:13:16.376Z,17.47
2024-05-09T18:15:53.644Z,17.42
2024-05-09T18:18:31.402Z,17.37
2024-05-09T18:21:08.913Z,17.30
2024-05-09T18:23:46.461Z,17.23
2024-05-09T18:26:24.135Z,17.16
2024-05-09T18:29:01.845Z,17.07
2024-05-09T18:31:39.143Z,17.01
2024-05-09T18:34:17.400Z,16.93
2024-05-09T18:36:54.931Z,16.86
2024-05-09T18:39:33.048Z,16.79
2024-05-09T18:42:11.140Z,16.71
2024-05-09T18:44:48.343Z,16.63
2024-05-09T18:47:26.832Z,16.54
2024-05-09T18:50:09.185Z,16.47
2024-05-09T18:52:51.933Z,16.38
2024-05-09T18:55:30.129Z,16.30
2024-05-09T18:58:07.989Z,16.24
2024-05-09T19:00:48.479Z,16.16
2024-05-09T19:03:28.841Z,16.09
2024-05-09T19:06:08.101Z,16.02
2024-05-09T19:08:45.701Z,15.95
2024-05-09T19:11:24.667Z,15.89
2024-05-09T19:14:04.466Z,15.82
2024-05-09T19:16:45.524Z,15.75
2024-05-09T19:19:22.864Z,15.68
2024-05-09T19:22:02.772Z,15.61
2024-05-09T19:24:41.051Z,15.54
2024-05-09T19:27:18.714Z,15.47
2024-05-09T19:29:58.031Z,15.41
2024-05-09T19:32:39.598Z,15.34
2024-05-09T19:35:18.024Z,15.28
2024-05-09T19:37:56.505Z,15.20
2024-05-09T19:40:38.422Z,15.13
2024-05-09T19:43:17.242Z,15.07
2024-05-09T19:45:55.676Z,15.01
2024-05-09T19:48:34.604Z,14.94
2024-05-09T19:51:12.416Z,14.88
2024-05-09T19:53:48.403Z,14.82
2024-05-09T19:56:27.091Z,14.78
2024-05-09T19:59:05.486Z,14.72
2024-05-09T20:01:45.229Z,14.67
2024-05-09T20:04:23.565Z,14.62
2024-05-09T20:07:04.574Z,14.57
2024-05-09T20:09:41.941Z,14.53
2024-05-09T20:12:19.387Z,14.48
2024-05-09T20:14:56.588Z,14.43
2024-05-09T20:17:34.957Z,14.39
2024-05-09T20:20:24.562Z,14.33
2024-05-09T20:23:12.471Z,14.28
2024-05-09T20:25:52.294Z,14.24
2024-05-09T20:28:29.725Z,14.20
2024-05-09T20:31:08.819Z,14.15
2024-05-09T20:33:46.999Z,14.10
2024-05-09T20:36:25.441Z,14.07
2024-05-09T20:39:02.614Z,14.02
2024-05-09T20:41:43.120Z,13.98
2024-05-09T20:44:22.338Z,13.95
2024-05-09T20:46:59.643Z,13.90
2024-05-09T20:49:37.838Z,13.86
2024-05-09T20:52:15.184Z,13.82
2024-05-09T20:54:52.498Z,13.79
2024-05-09T20:57:29.861Z,13.76
2024-05-09T21:00:14.839Z,13.72
2024-05-09T21:02:55.685Z,13.70
2024-05-09T21:05:33.239Z,13.68
2024-05-09T21:08:11.734Z,13.67
2024-05-09T21:10:49.081Z,13.67
2024-05-09T21:13:26.417Z,13.65
2024-05-09T21:16:03.765Z,13.67
2024-05-09T21:18:41.111Z,13.67
2024-05-09T21:21:18.490Z,13.67
2024-05-09T21:23:55.677Z,13.68
2024-05-09T21:26:33.474Z,13.66
2024-05-09T21:29:11.821Z,13.66
2024-05-09T21:31:49.199Z,13.63
2024-05-09T21:34:26.609Z,13.61
2024-05-09T21:37:03.983Z,13.56
2024-05-09T21:39:41.318Z,13.52
2024-05-09T21:42:18.509Z,13.50
2024-05-09T21:44:55.753Z,13.42
2024-05-09T21:47:33.222Z,13.38
2024-05-09T21:50:22.064Z,13.33
2024-05-09T21:53:00.737Z,13.29
2024-05-09T21:55:37.888Z,13.25
2024-05-09T21:58:16.091Z,13.20
2024-05-09T22:00:53.505Z,13.14
2024-05-09T22:03:30.919Z,13.09
2024-05-09T22:06:08.466Z,13.04
2024-05-09T22:08:45.794Z,12.97
2024-05-09T22:11:23.112Z,12.91
2024-05-09T22:14:00.414Z,12.85
2024-05-09T22:16:42.325Z,12.80
2024-05-09T22:19:19.869Z,12.78
2024-05-09T22:21:57.698Z,12.77
2024-05-09T22:24:35.670Z,12.74
2024-05-09T22:27:13.276Z,12.72
2024-05-09T22:29:50.591Z,12.71
2024-05-09T22:32:27.888Z,12.71
2024-05-09T22:35:07.806Z,12.70
2024-05-09T22:37:45.107Z,12.69
2024-05-09T22:40:32.136Z,12.68
2024-05-09T22:43:16.130Z,12.66
2024-05-09T22:45:54.334Z,12.66
2024-05-09T22:48:32.365Z,12.64
2024-05-09T22:51:10.112Z,12.62
2024-05-09T22:53:47.282Z,12.58
2024-05-09T22:56:31.725Z,12.54
2024-05-09T22:59:09.868Z,12.49
2024-05-09T23:01:47.271Z,12.45
2024-05-09T23:04:24.567Z,12.38
2024-05-09T23:07:01.747Z,12.32
2024-05-09T23:09:38.877Z,12.27
2024-05-09T23:12:17.676Z,12.21
2024-05-09T23:14:52.030Z,12.18
2024-05-09T23:17:29.191Z,12.16
2024-05-09T23:20:08.887Z,12.12
2024-05-09T23:22:48.744Z,12.11
2024-05-09T23:25:25.835Z,12.09
2024-05-09T23:28:03.551Z,12.08
2024-05-09T23:30:41.841Z,12.06
2024-05-09T23:33:16.934Z,12.03
2024-05-09T23:35:54.831Z,12.02
2024-05-09T23:38:31.843Z,12.01
2024-05-09T23:41:09.201Z,11.97
2024-05-09T23:43:46.525Z,11.93
2024-05-09T23:46:23.811Z,11.89
2024-05-09T23:49:01.283Z,11.84
2024-05-09T23:51:38.764Z,11.81
2024-05-09T23:54:17.565Z,11.76
2024-05-09T23:56:51.929Z,11.73
2024-05-09T23:59:29.073Z,11.72
